Time;durP1;ratioP1;P1;durP2;ratioP2;P2;SDS_P1;SDS_P2;PMS_P1;PMS_P2;Temp;Humidity;BMP_temperature;BMP_pressure;BME280_temperature;BME280_humidity;BME280_pressure;Samples;Min_cycle;Max_cycle;Signal;HPM_P1;HPM_P2
2021/06/16 00:00:06;;;;;;;11.97;10.93;;;21.50;1.00;;;;;;5070754;28;20441;-66
2021/06/16 00:02:32;;;;;;;12.47;11.27;;;21.50;1.00;;;;;;5070608;28;20176;-68
2021/06/16 00:04:57;;;;;;;12.53;11.43;;;21.40;1.00;;;;;;5069799;28;20798;-68
2021/06/16 00:07:23;;;;;;;15.77;12.07;;;21.40;1.00;;;;;;5070306;28;20275;-68
2021/06/16 00:09:48;;;;;;;12.63;11.53;;;21.40;1.00;;;;;;5073048;28;20222;-69
2021/06/16 00:12:14;;;;;;;12.80;11.60;;;21.40;1.00;;;;;;5074090;28;20190;-69
2021/06/16 00:14:40;;;;;;;13.23;11.93;;;21.20;1.00;;;;;;5074294;28;20206;-68
2021/06/16 00:17:05;;;;;;;13.50;12.10;;;21.30;1.00;;;;;;5084322;28;20175;-68
2021/06/16 00:19:31;;;;;;;14.33;13.03;;;21.20;1.00;;;;;;5094393;28;20237;-66
2021/06/16 00:21:57;;;;;;;13.90;12.60;;;21.20;1.00;;;;;;5094145;28;20179;-67
2021/06/16 00:24:22;;;;;;;13.00;11.70;;;21.20;1.00;;;;;;5093111;28;20190;-68
2021/06/16 00:26:48;;;;;;;13.57;12.13;;;21.20;1.00;;;;;;5072568;28;20176;-66
2021/06/16 00:29:15;;;;;;;14.13;12.77;;;21.20;1.00;;;;;;5073678;28;20221;-67
2021/06/16 00:31:41;;;;;;;14.50;13.10;;;21.20;1.00;;;;;;5073853;28;20180;-66
2021/06/16 00:34:06;;;;;;;13.97;12.50;;;21.20;1.00;;;;;;5073639;28;20537;-67
2021/06/16 00:36:32;;;;;;;13.43;12.30;;;21.10;1.00;;;;;;5072496;28;20430;-67
2021/06/16 00:38:59;;;;;;;15.90;13.93;;;21.10;1.00;;;;;;5073534;28;20191;-66
2021/06/16 00:41:25;;;;;;;13.40;12.27;;;21.10;1.00;;;;;;5093885;28;20537;-66
2021/06/16 00:43:50;;;;;;;15.20;13.87;;;21.10;1.00;;;;;;5093858;28;20436;-66
2021/06/16 00:46:16;;;;;;;13.87;12.67;;;21.10;1.00;;;;;;5093794;28;20936;-67
2021/06/16 00:48:42;;;;;;;15.83;14.00;;;21.10;1.00;;;;;;5094071;28;20179;-68
2021/06/16 00:51:07;;;;;;;15.70;14.10;;;21.10;1.00;;;;;;5093696;28;20437;-67
2021/06/16 00:53:33;;;;;;;14.17;12.70;;;21.00;1.00;;;;;;5093859;28;20200;-67
2021/06/16 00:55:59;;;;;;;14.87;13.60;;;21.00;1.00;;;;;;5092319;28;20199;-68
2021/06/16 00:58:25;;;;;;;15.20;13.80;;;20.90;1.00;;;;;;5092363;28;20178;-67
2021/06/16 01:01:06;;;;;;;15.20;13.77;;;20.90;1.00;;;;;;5093837;28;20189;-68
2021/06/16 01:03:55;;;;;;;14.27;12.77;;;20.80;1.00;;;;;;5093621;28;20649;-69
2021/06/16 01:06:25;;;;;;;14.67;13.13;;;20.80;1.00;;;;;;5077366;28;20429;-68
2021/06/16 01:09:06;;;;;;;15.87;14.27;;;20.80;1.00;;;;;;5073214;28;20814;-68
2021/06/16 01:11:43;;;;;;;14.80;13.43;;;20.70;1.00;;;;;;5070340;28;20476;-69
2021/06/16 01:14:19;;;;;;;16.43;14.30;;;20.70;1.00;;;;;;5071538;28;20468;-67
2021/06/16 01:16:54;;;;;;;15.10;13.70;;;20.80;1.00;;;;;;5083732;28;20443;-67
2021/06/16 01:19:51;;;;;;;15.87;14.13;;;20.70;1.00;;;;;;5092923;28;20420;-67
2021/06/16 01:22:36;;;;;;;16.43;14.87;;;20.80;1.00;;;;;;5090382;28;20420;-67
2021/06/16 01:25:08;;;;;;;15.77;14.33;;;20.70;1.00;;;;;;5072750;28;20801;-65
2021/06/16 01:27:34;;;;;;;16.87;15.13;;;20.70;1.00;;;;;;5072886;28;20453;-67
2021/06/16 01:30:02;;;;;;;18.20;16.57;;;20.60;1.00;;;;;;5072809;28;20441;-68
2021/06/16 01:32:27;;;;;;;17.67;15.90;;;20.70;1.00;;;;;;5072191;28;20441;-67
2021/06/16 01:34:53;;;;;;;18.73;17.00;;;20.70;1.00;;;;;;5072644;28;20962;-66
2021/06/16 01:37:19;;;;;;;20.67;15.93;;;20.60;1.00;;;;;;5072430;28;20180;-67
2021/06/16 01:39:46;;;;;;;17.93;16.27;;;20.50;1.00;;;;;;5072659;28;20671;-66
2021/06/16 01:42:17;;;;;;;16.87;15.20;;;20.50;1.00;;;;;;5072259;28;20445;-66
2021/06/16 01:44:45;;;;;;;17.60;15.73;;;20.50;1.00;;;;;;5071170;28;20845;-66
2021/06/16 01:47:11;;;;;;;17.83;15.10;;;20.40;1.00;;;;;;5072169;28;20483;-67
2021/06/16 01:49:37;;;;;;;18.17;16.37;;;20.40;1.00;;;;;;5072407;28;20456;-66
2021/06/16 01:52:05;;;;;;;17.67;15.90;;;20.50;1.00;;;;;;5076514;28;20799;-66
2021/06/16 01:54:32;;;;;;;17.73;16.03;;;20.50;1.00;;;;;;5070956;28;20540;-67
2021/06/16 01:56:58;;;;;;;17.37;15.70;;;20.40;1.00;;;;;;5072266;28;20488;-67
2021/06/16 01:59:26;;;;;;;19.03;17.03;;;20.30;1.00;;;;;;5072050;28;20429;-67
2021/06/16 02:01:52;;;;;;;16.17;14.67;;;20.20;1.00;;;;;;5072206;28;20885;-66
2021/06/16 02:04:18;;;;;;;17.30;15.50;;;20.10;1.00;;;;;;5072095;28;20475;-66
2021/06/16 02:06:48;;;;;;;17.90;16.20;;;20.10;1.00;;;;;;5072025;28;20448;-66
2021/06/16 02:09:14;;;;;;;17.10;15.53;;;20.10;1.00;;;;;;5071985;28;20471;-67
2021/06/16 02:11:42;;;;;;;18.53;16.80;;;20.00;1.00;;;;;;5070532;28;20442;-66
2021/06/16 02:14:11;;;;;;;17.80;16.00;;;20.00;1.00;;;;;;5071429;28;20465;-66
2021/06/16 02:16:43;;;;;;;19.53;17.63;;;20.00;1.00;;;;;;5071635;28;20441;-67
2021/06/16 02:19:14;;;;;;;17.80;16.10;;;20.10;1.00;;;;;;5071681;28;20437;-68
2021/06/16 02:21:40;;;;;;;17.50;15.83;;;22.80;1.00;;;;;;5071504;28;20436;-67
2021/06/16 02:24:10;;;;;;;18.03;16.23;;;20.10;1.00;;;;;;5071531;28;20452;-67
2021/06/16 02:26:36;;;;;;;17.23;15.63;;;20.10;1.00;;;;;;5071246;28;20464;-65
2021/06/16 02:29:05;;;;;;;17.17;15.57;;;20.10;1.00;;;;;;5071301;28;20465;-65
2021/06/16 02:31:31;;;;;;;18.00;16.10;;;20.00;1.00;;;;;;5083469;28;20441;-66
2021/06/16 02:33:56;;;;;;;18.00;16.30;;;20.00;1.00;;;;;;5091646;28;20475;-66
2021/06/16 02:36:23;;;;;;;17.60;15.93;;;20.00;1.00;;;;;;5091292;28;20315;-65
2021/06/16 02:38:56;;;;;;;19.67;17.67;;;19.90;1.00;;;;;;5070195;28;20262;-68
2021/06/16 02:41:22;;;;;;;18.40;16.70;;;19.90;1.00;;;;;;5069702;28;20958;-65
2021/06/16 02:43:49;;;;;;;19.67;17.80;;;19.90;1.00;;;;;;5072432;28;20445;-66
2021/06/16 02:46:15;;;;;;;18.50;16.80;;;19.90;1.00;;;;;;5091420;28;20460;-65
2021/06/16 02:48:44;;;;;;;19.27;17.37;;;19.90;1.00;;;;;;5091060;28;20878;-66
2021/06/16 02:51:12;;;;;;;17.00;15.50;;;19.90;1.00;;;;;;5091049;28;20493;-65
2021/06/16 02:53:40;;;;;;;19.03;17.13;;;19.90;1.00;;;;;;5090980;28;20436;-65
2021/06/16 02:56:06;;;;;;;17.80;16.23;;;19.90;1.00;;;;;;5091748;28;20463;-65
2021/06/16 02:58:34;;;;;;;20.27;18.30;;;19.90;1.00;;;;;;5091041;28;20516;-66
2021/06/16 03:01:02;;;;;;;19.17;16.30;;;20.00;1.00;;;;;;5089550;28;20186;-66
2021/06/16 03:03:28;;;;;;;19.73;17.93;;;20.00;1.00;;;;;;5090820;28;20441;-67
2021/06/16 03:05:56;;;;;;;19.13;17.17;;;20.00;1.00;;;;;;5090600;28;20432;-65
2021/06/16 03:08:23;;;;;;;19.03;17.33;;;19.90;1.00;;;;;;5090672;28;20965;-66
2021/06/16 03:10:50;;;;;;;18.30;16.70;;;19.90;1.00;;;;;;5089438;28;20965;-67
2021/06/16 03:13:17;;;;;;;20.30;18.30;;;19.90;1.00;;;;;;5090832;28;20464;-68
2021/06/16 03:15:45;;;;;;;19.70;17.60;;;20.00;1.00;;;;;;5089455;28;20543;-68
2021/06/16 03:18:12;;;;;;;18.27;16.43;;;20.00;1.00;;;;;;5090507;28;20437;-68
2021/06/16 03:20:40;;;;;;;18.50;16.80;;;20.10;1.00;;;;;;5069877;28;20477;-66
2021/06/16 03:23:08;;;;;;;18.83;16.83;;;20.10;1.00;;;;;;5070225;28;20432;-66
2021/06/16 03:25:36;;;;;;;19.37;17.37;;;20.20;1.00;;;;;;5070422;28;20434;-67
2021/06/16 03:28:03;;;;;;;18.97;16.97;;;20.20;1.00;;;;;;5070250;28;20984;-67
2021/06/16 03:30:30;;;;;;;18.03;16.17;;;20.30;1.00;;;;;;5070073;28;20453;-66
2021/06/16 03:32:57;;;;;;;16.90;15.40;;;20.40;1.00;;;;;;5070725;28;20442;-66
2021/06/16 03:35:23;;;;;;;17.47;15.97;;;20.60;1.00;;;;;;5070233;28;20560;-66
2021/06/16 03:37:51;;;;;;;16.30;14.87;;;20.70;1.00;;;;;;5069809;28;20524;-68
2021/06/16 03:40:17;;;;;;;17.03;15.40;;;20.80;1.00;;;;;;5070344;28;20635;-68
2021/06/16 03:42:44;;;;;;;16.47;14.17;;;20.90;1.00;;;;;;5070187;28;20430;-68
2021/06/16 03:45:11;;;;;;;15.93;14.33;;;21.10;1.00;;;;;;5070614;28;20452;-67
2021/06/16 03:47:39;;;;;;;16.70;15.10;;;21.10;1.00;;;;;;5086825;28;20960;-67
2021/06/16 03:50:07;;;;;;;18.53;16.60;;;21.20;1.00;;;;;;5089849;28;20433;-69
2021/06/16 03:52:34;;;;;;;17.27;15.57;;;21.10;1.00;;;;;;5090217;28;20455;-67
2021/06/16 03:55:00;;;;;;;18.77;16.70;;;21.00;1.00;;;;;;5090284;28;20460;-67
2021/06/16 03:57:26;;;;;;;18.57;16.67;;;20.90;1.00;;;;;;5087980;28;20465;-68
2021/06/16 03:59:52;;;;;;;18.53;16.73;;;20.90;1.00;;;;;;5090661;28;20469;-68
2021/06/16 04:02:19;;;;;;;18.00;16.30;;;20.80;1.00;;;;;;5070136;28;20440;-68
2021/06/16 04:04:45;;;;;;;18.23;16.60;;;;;;;;;;5076803;28;20441;-69
2021/06/16 04:07:17;;;;;;;17.57;16.00;;;20.80;1.00;;;;;;5071266;28;20487;-67
2021/06/16 04:09:43;;;;;;;18.60;16.90;;;20.90;1.00;;;;;;5070158;28;20438;-67
2021/06/16 04:12:10;;;;;;;16.83;15.30;;;21.00;1.00;;;;;;5069821;28;20484;-67
2021/06/16 04:14:35;;;;;;;17.30;15.30;;;20.90;1.00;;;;;;5070159;28;20465;-67
2021/06/16 04:17:01;;;;;;;18.50;16.80;;;20.80;1.00;;;;;;5069741;28;20765;-67
2021/06/16 04:19:27;;;;;;;19.30;17.57;;;20.90;1.00;;;;;;5069720;28;20197;-67
2021/06/16 04:21:52;;;;;;;18.33;16.53;;;20.90;1.00;;;;;;5074135;28;20574;-66
2021/06/16 04:24:18;;;;;;;17.80;15.97;;;20.90;1.00;;;;;;5090178;28;20183;-66
2021/06/16 04:26:43;;;;;;;19.83;17.93;;;21.00;1.00;;;;;;5090117;28;20253;-67
2021/06/16 04:29:09;;;;;;;19.70;17.87;;;21.00;1.00;;;;;;5088296;28;20737;-66
2021/06/16 04:31:35;;;;;;;21.10;18.73;;;21.00;1.00;;;;;;5085993;28;20183;-67
2021/06/16 04:34:01;;;;;;;19.63;17.63;;;21.00;1.00;;;;;;5069759;28;20191;-66
2021/06/16 04:36:26;;;;;;;19.87;17.87;;;20.80;1.00;;;;;;5086182;28;20443;-66
2021/06/16 04:38:52;;;;;;;23.27;20.90;;;20.90;1.00;;;;;;5089829;28;20213;-67
2021/06/16 04:41:17;;;;;;;21.63;19.00;;;20.70;1.00;;;;;;5089816;28;20183;-66
2021/06/16 04:43:43;;;;;;;20.13;18.23;;;20.90;1.00;;;;;;5089931;28;20612;-66
2021/06/16 04:46:09;;;;;;;21.00;18.90;;;21.00;1.00;;;;;;5089863;28;20183;-67
2021/06/16 04:48:34;;;;;;;18.27;16.60;;;21.10;1.00;;;;;;5088310;28;20517;-67
2021/06/16 04:51:00;;;;;;;20.50;18.43;;;21.30;1.00;;;;;;5089666;28;20175;-68
2021/06/16 04:53:26;;;;;;;20.10;18.20;;;21.40;1.00;;;;;;5089523;28;20174;-67
2021/06/16 04:55:51;;;;;;;20.37;18.40;;;21.50;1.00;;;;;;5092666;28;20678;-68
2021/06/16 04:58:17;;;;;;;18.80;17.10;;;21.80;1.00;;;;;;5093271;28;20182;-66
2021/06/16 05:00:43;;;;;;;18.80;16.97;;;21.90;1.00;;;;;;5093497;28;20182;-67
2021/06/16 05:03:08;;;;;;;17.87;16.10;;;22.10;1.00;;;;;;5093176;28;20178;-67
2021/06/16 05:05:34;;;;;;;18.30;16.80;;;22.10;1.00;;;;;;5093041;28;20236;-67
2021/06/16 05:07:59;;;;;;;18.23;16.50;;;22.20;1.00;;;;;;5078740;28;20179;-69
2021/06/16 05:10:25;;;;;;;18.90;17.20;;;22.30;1.00;;;;;;5073232;28;20694;-68
2021/06/16 05:12:51;;;;;;;18.27;16.60;;;22.40;1.00;;;;;;5072789;28;20195;-66
2021/06/16 05:15:17;;;;;;;17.80;16.07;;;22.50;1.00;;;;;;5073039;28;20552;-67
2021/06/16 05:17:43;;;;;;;18.20;16.60;;;22.50;1.00;;;;;;5072420;28;20186;-68
2021/06/16 05:20:11;;;;;;;17.57;15.73;;;22.60;1.00;;;;;;5072667;28;20520;-67
2021/06/16 05:22:37;;;;;;;19.20;17.40;;;22.60;1.00;;;;;;5072333;28;20970;-67
2021/06/16 05:25:05;;;;;;;18.57;16.63;;;22.70;1.00;;;;;;5071076;28;20521;-67
2021/06/16 05:27:31;;;;;;;18.13;16.60;;;22.80;1.00;;;;;;5080191;28;20548;-66
2021/06/16 05:29:57;;;;;;;18.90;17.10;;;22.80;1.00;;;;;;5092872;28;20447;-66
2021/06/16 05:32:23;;;;;;;18.73;16.73;;;22.70;1.00;;;;;;5092610;28;20436;-68
2021/06/16 05:34:49;;;;;;;22.90;20.40;;;22.70;1.00;;;;;;5072422;28;20226;-68
2021/06/16 05:37:14;;;;;;;18.20;16.50;;;22.70;1.00;;;;;;5072414;28;20884;-66
2021/06/16 05:39:40;;;;;;;18.30;16.80;;;23.00;1.00;;;;;;5071997;28;20179;-66
2021/06/16 05:42:06;;;;;;;17.90;16.10;;;23.20;1.00;;;;;;5072076;28;20188;-68
2021/06/16 05:44:32;;;;;;;18.37;16.53;;;23.30;1.00;;;;;;5071966;28;20191;-68
2021/06/16 05:46:58;;;;;;;18.70;17.03;;;23.40;1.00;;;;;;5072238;28;20195;-67
2021/06/16 05:49:24;;;;;;;20.77;17.90;;;23.40;1.00;;;;;;5086149;28;20448;-67
2021/06/16 05:51:49;;;;;;;19.87;17.87;;;23.40;1.00;;;;;;5071870;28;20296;-67
2021/06/16 05:54:15;;;;;;;18.93;15.77;;;23.20;1.00;;;;;;5087532;28;20217;-66
2021/06/16 05:56:41;;;;;;;18.20;16.40;;;23.40;1.00;;;;;;5091772;28;20185;-68
2021/06/16 05:59:07;;;;;;;17.70;16.00;;;23.60;1.00;;;;;;5092181;28;20248;-68
2021/06/16 06:01:34;;;;;;;17.90;16.20;;;23.60;1.00;;;;;;5091762;28;20433;-67
2021/06/16 06:04:01;;;;;;;17.47;15.73;;;23.60;1.00;;;;;;5091831;28;20429;-66
2021/06/16 06:06:29;;;;;;;17.40;15.67;;;23.70;1.00;;;;;;5091196;28;20816;-66
2021/06/16 06:08:54;;;;;;;16.50;15.00;;;23.90;1.00;;;;;;5091533;28;20441;-65
2021/06/16 06:11:20;;;;;;;17.50;15.97;;;24.10;1.00;;;;;;5091464;28;20474;-67
2021/06/16 06:13:46;;;;;;;16.77;15.17;;;24.10;1.00;;;;;;5091185;28;20467;-68
2021/06/16 06:16:12;;;;;;;18.20;16.60;;;24.20;1.00;;;;;;5091886;28;20183;-69
2021/06/16 06:18:38;;;;;;;16.97;15.47;;;24.30;1.00;;;;;;5091803;28;20182;-66
2021/06/16 06:21:04;;;;;;;16.70;15.30;;;24.50;1.00;;;;;;5091689;28;20527;-68
2021/06/16 06:23:29;;;;;;;17.20;15.67;;;24.40;1.00;;;;;;5091731;28;20193;-67
2021/06/16 06:25:55;;;;;;;19.03;17.10;;;24.30;1.00;;;;;;5073005;28;20442;-69
2021/06/16 06:28:20;;;;;;;18.20;16.40;;;24.10;1.00;;;;;;5082109;28;20210;-67
2021/06/16 06:30:46;;;;;;;18.47;16.77;;;24.00;1.00;;;;;;5091253;28;20198;-68
2021/06/16 06:33:11;;;;;;;17.67;16.03;;;24.00;1.00;;;;;;5091554;28;20179;-69
2021/06/16 06:35:37;;;;;;;17.07;15.50;;;24.00;1.00;;;;;;5091270;28;20207;-68
2021/06/16 06:38:04;;;;;;;17.27;15.77;;;23.60;1.00;;;;;;5089112;28;20186;-67
2021/06/16 06:40:30;;;;;;;15.60;14.13;;;23.60;1.00;;;;;;5070982;28;20596;-67
2021/06/16 06:42:56;;;;;;;16.77;15.27;;;23.50;1.00;;;;;;5070860;28;20429;-68
2021/06/16 06:45:21;;;;;;;17.50;15.97;;;23.80;1.00;;;;;;5071363;28;20540;-68
2021/06/16 06:47:47;;;;;;;16.43;15.03;;;23.60;1.00;;;;;;5071119;28;20206;-68
2021/06/16 06:50:14;;;;;;;16.57;15.13;;;23.60;1.00;;;;;;5070842;28;20180;-69
2021/06/16 06:52:42;;;;;;;17.13;15.70;;;23.60;1.00;;;;;;5069831;28;20175;-68
2021/06/16 06:55:08;;;;;;;16.97;15.47;;;23.80;1.00;;;;;;5070145;28;20991;-69
2021/06/16 06:57:34;;;;;;;15.80;14.30;;;24.00;1.00;;;;;;5070699;28;20939;-69
2021/06/16 06:59:59;;;;;;;16.87;15.23;;;24.20;1.00;;;;;;5070277;28;20441;-68
2021/06/16 07:02:25;;;;;;;17.33;14.67;;;24.30;1.00;;;;;;5070987;28;20188;-68
2021/06/16 07:04:51;;;;;;;14.40;13.10;;;24.60;1.00;;;;;;5070705;28;20172;-68
2021/06/16 07:07:16;;;;;;;15.27;12.63;;;24.70;1.00;;;;;;5076017;28;20182;-67
2021/06/16 07:09:44;;;;;;;15.83;14.30;;;25.10;1.00;;;;;;5079916;28;20187;-68
2021/06/16 07:12:10;;;;;;;15.70;14.03;;;25.30;1.00;;;;;;5090850;28;20186;-69
2021/06/16 07:14:38;;;;;;;14.40;13.07;;;25.30;1.00;;;;;;5091175;28;20853;-68
2021/06/16 07:17:03;;;;;;;15.80;14.13;;;25.50;1.00;;;;;;5090257;28;20429;-68
2021/06/16 07:19:29;;;;;;;14.27;13.00;;;25.80;1.00;;;;;;5089871;28;20432;-69
2021/06/16 07:21:54;;;;;;;15.07;13.50;;;25.90;1.00;;;;;;5090652;28;20183;-68
2021/06/16 07:24:20;;;;;;;13.43;12.20;;;25.80;1.00;;;;;;5089468;28;20178;-68
2021/06/16 07:26:45;;;;;;;13.30;12.13;;;25.90;1.00;;;;;;5084989;28;20179;-68
2021/06/16 07:29:11;;;;;;;14.07;12.70;;;26.00;1.00;;;;;;5081684;28;20236;-69
2021/06/16 07:31:36;;;;;;;12.73;11.40;;;26.30;1.00;;;;;;5070598;28;20209;-68
2021/06/16 07:34:02;;;;;;;16.20;14.70;;;26.50;1.00;;;;;;5070208;28;20270;-69
2021/06/16 07:36:28;;;;;;;14.50;12.90;;;26.30;1.00;;;;;;5084452;28;20190;-68
2021/06/16 07:38:53;;;;;;;12.37;11.33;;;26.50;1.00;;;;;;5089419;28;20199;-68
2021/06/16 07:41:19;;;;;;;13.83;12.40;;;26.70;1.00;;;;;;5090243;28;20213;-71
2021/06/16 07:43:44;;;;;;;13.07;11.87;;;27.10;1.00;;;;;;5088766;28;20662;-68
2021/06/16 07:46:10;;;;;;;12.90;11.80;;;27.20;1.00;;;;;;5090526;28;20711;-68
2021/06/16 07:48:35;;;;;;;14.83;12.37;;;27.00;1.00;;;;;;5089968;28;20194;-68
2021/06/16 07:51:01;;;;;;;11.70;10.63;;;26.90;1.00;;;;;;5089918;28;20265;-69
2021/06/16 07:53:27;;;;;;;12.60;11.47;;;26.90;1.00;;;;;;5088921;28;20539;-69
2021/06/16 07:55:52;;;;;;;12.27;11.20;;;27.00;1.00;;;;;;5084535;28;20207;-69
2021/06/16 07:58:18;;;;;;;12.83;11.83;;;27.00;1.00;;;;;;5089739;28;20532;-69
2021/06/16 08:00:44;;;;;;;13.80;12.40;;;27.00;1.00;;;;;;5088834;28;20189;-68
2021/06/16 08:03:10;;;;;;;12.00;10.90;;;26.90;1.00;;;;;;5090113;28;20433;-67
2021/06/16 08:05:35;;;;;;;12.20;11.10;;;26.70;1.00;;;;;;5090101;28;20612;-69
2021/06/16 08:08:01;;;;;;;11.23;10.23;;;26.60;1.00;;;;;;5090261;28;20182;-68
2021/06/16 08:10:28;;;;;;;12.40;11.30;;;26.60;1.00;;;;;;5090044;28;20175;-68
2021/06/16 08:12:53;;;;;;;12.87;10.57;;;26.70;1.00;;;;;;5090529;28;20202;-69
2021/06/16 08:15:19;;;;;;;13.17;11.97;;;26.70;1.00;;;;;;5090013;28;20518;-66
2021/06/16 08:17:44;;;;;;;16.40;11.37;;;26.70;1.00;;;;;;5089951;28;20194;-69
2021/06/16 08:20:11;;;;;;;13.43;11.97;;;26.80;1.00;;;;;;5090025;28;20628;-70
2021/06/16 08:22:36;;;;;;;14.63;12.43;;;26.90;1.00;;;;;;5089866;28;20179;-68
2021/06/16 08:25:06;;;;;;;12.50;11.30;;;26.90;1.00;;;;;;5089872;28;20432;-69
2021/06/16 08:27:31;;;;;;;10.70;9.80;;;26.90;1.00;;;;;;5089637;28;20214;-68
2021/06/16 08:29:57;;;;;;;11.73;10.83;;;27.00;1.00;;;;;;5091285;28;20459;-68
2021/06/16 08:32:22;;;;;;;11.87;10.70;;;26.80;1.00;;;;;;5093633;28;20644;-68
2021/06/16 08:34:48;;;;;;;11.70;10.70;;;26.70;1.00;;;;;;5093567;28;20206;-69
2021/06/16 08:37:14;;;;;;;11.97;10.47;;;26.60;1.00;;;;;;5093657;28;20528;-67
2021/06/16 08:39:39;;;;;;;11.83;10.70;;;26.50;1.00;;;;;;5094103;28;20183;-69
2021/06/16 08:42:08;;;;;;;12.37;11.07;;;26.60;1.00;;;;;;5093572;28;20170;-68
2021/06/16 08:44:34;;;;;;;17.80;10.90;;;26.50;1.00;;;;;;5076035;28;20192;-69
2021/06/16 08:47:00;;;;;;;11.47;10.57;;;26.60;1.00;;;;;;5073217;28;20444;-69
2021/06/16 08:49:26;;;;;;;15.43;10.40;;;27.00;1.00;;;;;;5086096;28;20281;-68
2021/06/16 08:51:52;;;;;;;11.17;10.17;;;27.30;1.00;;;;;;5093375;28;20205;-68
2021/06/16 08:54:17;;;;;;;12.10;10.37;;;27.60;1.00;;;;;;5093308;28;20471;-67
2021/06/16 08:56:43;;;;;;;12.60;11.13;;;27.60;1.00;;;;;;5078571;28;20310;-68
2021/06/16 08:59:08;;;;;;;11.10;10.20;;;27.70;1.00;;;;;;5082866;28;20179;-69
2021/06/16 09:01:34;;;;;;;11.47;10.43;;;27.70;1.00;;;;;;5092952;28;20237;-69
2021/06/16 09:04:00;;;;;;;12.20;10.90;;;27.80;1.00;;;;;;5093020;28;20505;-69
2021/06/16 09:06:29;;;;;;;11.10;9.93;;;27.90;1.00;;;;;;5093370;28;20181;-75
2021/06/16 09:09:07;;;;;;;11.67;10.67;;;27.90;1.00;;;;;;5092958;28;21176;-68
2021/06/16 09:11:39;;;;;;;11.57;10.57;;;27.90;1.00;;;;;;5093206;28;20425;-68
2021/06/16 09:14:21;;;;;;;11.47;10.33;;;27.80;1.00;;;;;;5092670;28;20440;-68
2021/06/16 09:16:48;;;;;;;11.80;10.70;;;26.20;1.00;;;;;;5092962;28;20451;-69
2021/06/16 09:19:33;;;;;;;12.00;10.33;;;27.60;1.00;;;;;;5083466;28;20440;-69
2021/06/16 09:22:08;;;;;;;15.43;11.50;;;28.00;1.00;;;;;;5072790;28;20566;-70
2021/06/16 09:24:53;;;;;;;11.47;10.43;;;27.80;1.00;;;;;;5072529;28;20763;-69
2021/06/16 09:27:48;;;;;;;12.73;11.40;;;28.20;1.00;;;;;;5072417;28;20442;-70
2021/06/16 09:30:21;;;;;;;11.47;10.40;;;28.10;1.00;;;;;;5072183;28;20446;-68
2021/06/16 09:32:59;;;;;;;10.63;9.73;;;28.20;1.00;;;;;;5071160;28;20446;-68
2021/06/16 09:35:33;;;;;;;12.10;9.90;;;28.10;1.00;;;;;;5072555;28;20465;-69
2021/06/16 09:38:00;;;;;;;10.70;9.80;;;27.90;1.00;;;;;;5072246;28;20459;-68
2021/06/16 09:40:31;;;;;;;12.33;10.70;;;27.90;1.00;;;;;;5079788;28;20436;-69
2021/06/16 09:43:03;;;;;;;10.63;9.73;;;28.20;1.00;;;;;;5090265;28;20444;-69
2021/06/16 09:45:29;;;;;;;11.17;10.20;;;28.20;1.00;;;;;;5081835;28;20494;-68
2021/06/16 09:47:55;;;;;;;11.27;10.27;;;28.50;1.00;;;;;;5086059;28;20459;-69
2021/06/16 09:50:26;;;;;;;11.87;10.60;;;28.50;1.00;;;;;;5090788;28;20432;-68
2021/06/16 09:52:53;;;;;;;10.73;9.77;;;28.40;1.00;;;;;;5092286;28;20517;-69
2021/06/16 09:55:21;;;;;;;11.70;10.37;;;28.30;1.00;;;;;;5082992;28;20517;-68
2021/06/16 09:58:05;;;;;;;10.77;9.83;;;28.30;1.00;;;;;;5072121;28;20433;-68
2021/06/16 10:00:33;;;;;;;10.83;9.77;;;28.20;1.00;;;;;;5072106;28;20543;-68
2021/06/16 10:03:08;;;;;;;10.47;9.57;;;28.20;1.00;;;;;;5089031;28;20460;-70
2021/06/16 10:05:34;;;;;;;11.20;10.20;;;27.90;1.00;;;;;;5091913;28;20951;-69
2021/06/16 10:08:00;;;;;;;10.43;9.63;;;28.00;1.00;;;;;;5092162;28;20445;-68
2021/06/16 10:10:26;;;;;;;11.80;10.60;;;28.20;1.00;;;;;;5092051;28;20551;-69
2021/06/16 10:12:52;;;;;;;10.57;9.70;;;28.30;1.00;;;;;;5091714;28;20633;-69
2021/06/16 10:15:20;;;;;;;11.27;10.33;;;28.40;1.00;;;;;;5092046;28;20207;-69
2021/06/16 10:17:46;;;;;;;11.17;10.27;;;28.50;1.00;;;;;;5092194;28;20857;-69
2021/06/16 10:20:14;;;;;;;11.00;10.00;;;28.50;1.00;;;;;;5091745;28;20790;-68
2021/06/16 10:22:40;;;;;;;14.23;10.60;;;28.30;1.00;;;;;;5091761;28;20794;-68
2021/06/16 10:25:06;;;;;;;12.90;11.70;;;28.00;1.00;;;;;;5091643;28;20441;-71
2021/06/16 10:27:35;;;;;;;11.57;10.37;;;28.10;1.00;;;;;;5075376;28;20460;-70
2021/06/16 10:30:03;;;;;;;11.10;10.10;;;28.20;1.00;;;;;;5092008;28;20437;-71
2021/06/16 10:32:37;;;;;;;10.60;9.50;;;28.40;1.00;;;;;;5071093;28;20924;-70
2021/06/16 10:35:04;;;;;;;11.77;10.80;;;28.60;1.00;;;;;;5071212;28;20630;-71
2021/06/16 10:37:33;;;;;;;11.50;10.40;;;28.70;1.00;;;;;;5069857;28;20487;-69
2021/06/16 10:40:19;;;;;;;11.40;10.50;;;28.60;1.00;;;;;;5071174;28;20441;-70
2021/06/16 10:43:16;;;;;;;12.13;11.07;;;28.70;1.00;;;;;;5083443;28;20433;-69
2021/06/16 10:46:01;;;;;;;12.30;11.30;;;28.80;1.00;;;;;;5069246;28;20456;-69
2021/06/16 10:48:48;;;;;;;11.77;10.77;;;29.00;1.00;;;;;;5070895;28;20802;-69
2021/06/16 10:51:31;;;;;;;11.50;10.30;;;29.20;1.00;;;;;;5088083;28;20684;-68
2021/06/16 10:54:10;;;;;;;11.33;10.40;;;28.80;1.00;;;;;;5070617;28;21020;-70
2021/06/16 10:56:44;;;;;;;11.13;10.23;;;28.80;1.00;;;;;;5069280;28;20467;-69
2021/06/16 10:59:10;;;;;;;12.33;11.03;;;28.60;1.00;;;;;;5071079;28;20934;-68
2021/06/16 11:01:49;;;;;;;11.07;10.07;;;28.90;1.00;;;;;;5070850;28;20456;-69
2021/06/16 11:04:29;;;;;;;11.97;10.80;;;29.00;1.00;;;;;;5073886;28;20882;-71
2021/06/16 11:06:54;;;;;;;10.43;9.53;;;29.20;1.00;;;;;;5068907;28;20528;-70
2021/06/16 11:09:48;;;;;;;10.60;9.70;;;29.40;1.00;;;;;;5070679;28;20450;-72
2021/06/16 11:12:14;;;;;;;11.03;9.70;;;29.30;1.00;;;;;;5070843;28;20187;-70
2021/06/16 11:14:45;;;;;;;10.40;9.33;;;29.10;1.00;;;;;;5079392;28;20576;-70
2021/06/16 11:17:33;;;;;;;10.77;9.70;;;29.20;1.00;;;;;;5091321;28;20183;-71
2021/06/16 11:20:07;;;;;;;10.70;9.63;;;29.30;1.00;;;;;;5065479;28;20829;-70
2021/06/16 11:22:35;;;;;;;10.23;9.40;;;29.50;1.00;;;;;;5070626;28;20992;-70
2021/06/16 11:25:20;;;;;;;10.10;9.10;;;29.50;1.00;;;;;;5070588;28;20439;-70
2021/06/16 11:28:10;;;;;;;10.97;9.90;;;29.60;1.00;;;;;;5070327;28;20532;-70
2021/06/16 11:30:55;;;;;;;11.03;9.27;;;30.00;1.00;;;;;;5070560;28;20462;-71
2021/06/16 11:33:21;;;;;;;10.40;9.30;;;30.30;1.00;;;;;;5070413;28;20441;-70
2021/06/16 11:36:00;;;;;;;9.33;8.53;;;30.30;1.00;;;;;;5087024;28;20475;-69
2021/06/16 11:38:26;;;;;;;10.00;8.97;;;30.00;1.00;;;;;;5078798;28;20429;-70
2021/06/16 11:41:10;;;;;;;9.40;8.47;;;30.00;1.00;;;;;;5084780;28;20432;-70
2021/06/16 11:43:41;;;;;;;9.70;8.27;;;30.00;1.00;;;;;;5089838;28;20241;-71
2021/06/16 11:46:26;;;;;;;9.40;8.47;;;30.30;1.00;;;;;;5082716;28;20441;-70
2021/06/16 11:48:59;;;;;;;11.47;9.20;;;30.60;1.00;;;;;;5090809;28;22277;-70
2021/06/16 11:51:32;;;;;;;9.63;8.83;;;30.90;1.00;;;;;;5091508;28;20451;-71
2021/06/16 11:54:20;;;;;;;9.10;8.40;;;31.00;1.00;;;;;;5089785;28;20700;-70
2021/06/16 11:57:10;;;;;;;14.50;8.33;;;30.80;1.00;;;;;;5091031;28;20448;-70
2021/06/16 11:59:52;;;;;;;9.43;8.53;;;30.50;1.00;;;;;;5077362;28;20430;-71
2021/06/16 12:02:25;;;;;;;9.73;8.80;;;30.30;1.00;;;;;;5070603;28;20549;-70
2021/06/16 12:05:02;;;;;;;8.70;8.00;;;30.40;1.00;;;;;;5071991;28;20883;-70
2021/06/16 12:07:37;;;;;;;8.70;8.00;;;30.40;1.00;;;;;;5075173;28;20433;-70
2021/06/16 12:10:08;;;;;;;10.00;9.10;;;30.30;1.00;;;;;;5085170;28;20912;-71
2021/06/16 12:12:51;;;;;;;10.20;8.50;;;30.20;1.00;;;;;;5087590;28;20507;-71
2021/06/16 12:15:23;;;;;;;8.17;7.40;;;30.30;1.00;;;;;;5076878;28;20940;-70
2021/06/16 12:18:13;;;;;;;8.60;7.80;;;30.00;1.00;;;;;;5094822;28;20937;-71
2021/06/16 12:20:42;;;;;;;9.80;8.90;;;30.00;1.00;;;;;;5086569;28;20472;-70
2021/06/16 12:23:41;;;;;;;10.10;8.90;;;30.00;1.00;;;;;;5094055;28;20486;-70
2021/06/16 12:26:11;;;;;;;10.03;9.23;;;30.10;1.00;;;;;;5094718;28;20415;-70
2021/06/16 12:28:41;;;;;;;8.60;8.00;;;30.00;1.00;;;;;;5094166;28;21026;-71
2021/06/16 12:31:11;;;;;;;9.30;8.50;;;30.00;1.00;;;;;;5080135;28;20480;-70
2021/06/16 12:33:49;;;;;;;9.00;8.27;;;30.20;1.00;;;;;;5089431;28;20474;-70
2021/06/16 12:36:23;;;;;;;8.47;7.70;;;30.40;1.00;;;;;;5091629;28;20460;-71
2021/06/16 12:38:54;;;;;;;10.13;8.87;;;30.40;1.00;;;;;;5093838;28;20428;-71
2021/06/16 12:41:27;;;;;;;9.17;8.50;;;30.60;1.00;;;;;;5078399;28;20440;-70
2021/06/16 12:44:20;;;;;;;10.07;9.07;;;30.60;1.00;;;;;;5073263;28;20468;-69
2021/06/16 12:46:55;;;;;;;9.50;8.70;;;30.40;1.00;;;;;;5072208;28;20768;-70
2021/06/16 12:49:21;;;;;;;9.20;8.30;;;30.50;1.00;;;;;;5072026;28;20541;-71